Time;durP1;ratioP1;P1;durP2;ratioP2;P2;SDS_P1;SDS_P2;PMS_P1;PMS_P2;Temp;Humidity;BMP_temperature;BMP_pressure;BME280_temperature;BME280_humidity;BME280_pressure;Samples;Min_cycle;Max_cycle;Signal;HPM_P1;HPM_P2
2021/12/02 00:01:36;;;;;;;;;;;;;;;;;;5005134;28;19925;-68
2021/12/02 00:04:06;;;;;;;;;;;;;;;;;;5004314;28;20244;-67
2021/12/02 00:06:36;;;;;;;;;;;;;;;;;;5006414;28;19925;-67
2021/12/02 00:09:05;;;;;;;;;;;;;;;;;;5006742;28;19941;-68
2021/12/02 00:11:36;;;;;;;;;;;;;;;;;;5009709;28;19933;-67
2021/12/02 00:14:10;;;;;;;;;;;;;;;;;;5018866;28;19926;-68
2021/12/02 00:17:03;;;;;;;;;;;;;;;;;;5029269;28;20403;-68
2021/12/02 00:22:33;;;;;;;;;;;;;;;;;;5028180;28;19931;-68
2021/12/02 00:25:03;;;;;;;;;;;;;;;;;;5036708;28;19952;-67
2021/12/02 00:27:35;;;;;;;;;;;;;;;;;;5024968;28;19925;-68
2021/12/02 00:30:05;;;;;;;;;;;;;;;;;;5026975;28;19949;-67
2021/12/02 00:32:35;;;;;;;;;;;;;;;;;;5029175;28;20469;-67
2021/12/02 00:35:06;;;;;;;;;;;;;;;;;;5030942;28;19948;-67
2021/12/02 00:37:35;;;;;;;;;;;;;;;;;;5023360;28;19925;-67
2021/12/02 00:40:05;;;;;;;;;;;;;;;;;;5020154;28;19929;-67
2021/12/02 00:42:42;;;;;;;;;;;;;;;;;;5038280;28;19988;-67
2021/12/02 00:45:11;;;;;;;;;;;;;;;;;;5040261;28;19936;-67
2021/12/02 00:47:42;;;;;;;;;;;;;;;;;;5026230;28;19984;-67
2021/12/02 00:50:11;;;;;;;;;;;;;;;;;;5030414;28;20055;-67
2021/12/02 00:52:41;;;;;;;;;;;;;;;;;;5046155;28;19925;-67
2021/12/02 00:55:09;;;;;;;;;;;;;;;;;;5031538;28;20027;-68
2021/12/02 00:57:39;;;;;;;;;;;;;;;;;;5027235;28;20262;-67
2021/12/02 01:00:10;;;;;;;;;;;;;;;;;;5030230;28;19929;-67
2021/12/02 01:02:40;;;;;;;;;;;;;;;;;;5026519;28;19929;-67
2021/12/02 01:05:11;;;;;;;;;;;;;;;;;;5031150;28;19944;-67
2021/12/02 01:07:44;;;;;;;;;;;;;;;;;;5024220;28;19936;-67
2021/12/02 01:10:12;;;;;;;;;;;;;;;;;;5027487;28;19933;-67
2021/12/02 01:12:46;;;;;;;;;;;;;;;;;;5023257;28;19937;-67
2021/12/02 01:15:20;;;;;;;;;;;;;;;;;;4989578;28;19926;-67
2021/12/02 01:17:51;;;;;;;;;;;;;;;;;;4987862;28;19929;-68
2021/12/02 01:20:19;;;;;;;;;;;;;;;;;;4987626;28;19926;-68
2021/12/02 01:22:49;;;;;;;;;;;;;;;;;;4975466;28;19981;-68
2021/12/02 01:25:19;;;;;;;;;;;;;;;;;;4987108;28;19934;-67
2021/12/02 01:27:51;;;;;;;;;;;;;;;;;;4979620;28;20368;-68
2021/12/02 01:30:19;;;;;;;;;;;;;;;;;;4986943;28;19926;-68
2021/12/02 01:32:50;;;;;;;;;;;;;;;;;;4990307;28;19991;-68
2021/12/02 01:35:23;;;;;;;;;;;;;;;;;;4987391;28;19926;-68
2021/12/02 01:37:52;;;;;;;;;;;;;;;;;;4989232;28;20503;-67
2021/12/02 01:40:25;;;;;;;;;;;;;;;;;;4987019;28;20024;-68
2021/12/02 01:42:54;;;;;;;;;;;;;;;;;;4989922;28;20533;-67
2021/12/02 01:45:24;;;;;;;;;;;;;;;;;;4988081;28;19926;-68
2021/12/02 01:47:57;;;;;;;;;;;;;;;;;;4989437;28;19926;-67
2021/12/02 01:50:26;;;;;;;;;;;;;;;;;;4984512;28;19926;-67
2021/12/02 01:52:56;;;;;;;;;;;;;;;;;;4988939;28;19929;-67
2021/12/02 01:55:25;;;;;;;;;;;;;;;;;;4987012;28;19930;-68
2021/12/02 01:57:59;;;;;;;;;;;;;;;;;;4999759;28;19934;-68
2021/12/02 02:00:28;;;;;;;;;;;;;;;;;;4986893;28;19925;-68
2021/12/02 02:02:59;;;;;;;;;;;;;;;;;;4987057;28;19936;-67
2021/12/02 02:05:31;;;;;;;;;;;;;;;;;;4985049;28;20028;-67
2021/12/02 02:08:00;;;;;;;;;;;;;;;;;;4985270;28;19926;-67
2021/12/02 02:10:29;;;;;;;;;;;;;;;;;;4988054;28;19944;-67
2021/12/02 02:13:01;;;;;;;;;;;;;;;;;;4990174;28;19926;-67
2021/12/02 02:15:32;;;;;;;;;;;;;;;;;;5025929;28;20020;-68
2021/12/02 02:18:14;;;;;;;;;;;;;;;;;;5026605;28;20385;-68
2021/12/02 02:20:51;;;;;;;;;;;;;;;;;;5021907;28;19924;-68
2021/12/02 02:23:19;;;;;;;;;;;;;;;;;;5027266;28;19929;-69
2021/12/02 02:25:49;;;;;;;;;;;;;;;;;;5027950;28;19932;-68
2021/12/02 02:28:20;;;;;;;;;;;;;;;;;;5022024;28;19925;-68
2021/12/02 02:30:53;;;;;;;;;;;;;;;;;;5022825;28;19925;-68
2021/12/02 02:33:23;;;;;;;;;;;;;;;;;;5025235;28;19933;-68
2021/12/02 02:35:54;;;;;;;;;;;;;;;;;;5033460;28;19986;-68
2021/12/02 02:38:25;;;;;;;;;;;;;;;;;;5029705;28;20056;-67
2021/12/02 02:40:56;;;;;;;;;;;;;;;;;;5027859;28;19932;-68
2021/12/02 02:43:30;;;;;;;;;;;;;;;;;;5029486;28;19925;-67
2021/12/02 02:45:58;;;;;;;;;;;;;;;;;;5032060;28;19933;-68
2021/12/02 02:48:28;;;;;;;;;;;;;;;;;;5024746;28;20410;-67
2021/12/02 02:51:00;;;;;;;;;;;;;;;;;;5022215;28;19936;-67
2021/12/02 02:53:31;;;;;;;;;;;;;;;;;;5016601;28;20427;-67
2021/12/02 02:59:05;;;;;;;;;;;;;;;;;;5012848;28;19982;-67
2021/12/02 03:01:45;;;;;;;;;;;;;;;;;;5024565;28;20478;-68
2021/12/02 03:07:32;;;;;;;;;;;;;;;;;;4971684;28;19937;-67
2021/12/02 03:13:12;;;;;;;;;;;;;;;;;;5023454;28;19925;-67
2021/12/02 03:18:27;;;;;;;;;;;;;;;;;;5025692;28;19936;-67
2021/12/02 03:20:57;;;;;;;;;;;;;;;;;;5023595;28;19926;-67
2021/12/02 03:23:28;;;;;;;;;;;;;;;;;;5023031;28;19925;-67
2021/12/02 03:25:56;;;;;;;;;;;;;;;;;;5025589;28;19929;-67
2021/12/02 03:28:26;;;;;;;;;;;;;;;;;;5026085;28;19925;-67
2021/12/02 03:30:53;;;;;;;;;;;;;;;;;;5027586;28;20353;-66
2021/12/02 03:33:23;;;;;;;;;;;;;;;;;;5019278;28;19964;-66
2021/12/02 03:35:55;;;;;;;;;;;;;;;;;;5022773;28;19925;-67
2021/12/02 03:38:32;;;;;;;;;;;;;;;;;;4993983;28;19925;-66
2021/12/02 03:41:02;;;;;;;;;;;;;;;;;;5023224;28;20015;-66
2021/12/02 03:43:34;;;;;;;;;;;;;;;;;;5008277;28;19979;-66
2021/12/02 03:46:06;;;;;;;;;;;;;;;;;;5024312;28;20435;-66
2021/12/02 03:48:40;;;;;;;;;;;;;;;;;;5030213;28;19971;-66
2021/12/02 03:51:09;;;;;;;;;;;;;;;;;;5028217;28;19933;-66
2021/12/02 03:53:41;;;;;;;;;;;;;;;;;;5027025;28;20035;-66
2021/12/02 03:56:12;;;;;;;;;;;;;;;;;;5024912;28;19925;-66
2021/12/02 03:58:45;;;;;;;;;;;;;;;;;;5021009;28;20417;-66
2021/12/02 04:01:18;;;;;;;;;;;;;;;;;;5027701;28;19940;-66
2021/12/02 04:03:51;;;;;;;;;;;;;;;;;;5021161;28;20358;-66
2021/12/02 04:06:22;;;;;;;;;;;;;;;;;;5029603;28;19934;-66
2021/12/02 04:08:59;;;;;;;;;;;;;;;;;;5023469;28;19928;-66
2021/12/02 04:17:01;;;;;;;;;;;;;;;;;;5029207;28;20581;-66
2021/12/02 04:19:45;;;;;;;;;;;;;;;;;;5023168;28;19933;-66
2021/12/02 04:22:15;;;;;;;;;;;;;;;;;;5012806;28;19929;-66
2021/12/02 04:24:50;;;;;;;;;;;;;;;;;;5029135;28;19936;-66
2021/12/02 04:27:20;;;;;;;;;;;;;;;;;;5030345;28;19925;-66
2021/12/02 04:29:51;;;;;;;;;;;;;;;;;;5027016;28;19925;-66
2021/12/02 04:32:21;;;;;;;;;;;;;;;;;;5027531;28;19933;-66
2021/12/02 04:34:54;;;;;;;;;;;;;;;;;;5028879;28;19932;-66
2021/12/02 04:37:24;;;;;;;;;;;;;;;;;;5028546;28;19931;-66
2021/12/02 04:39:54;;;;;;;;;;;;;;;;;;5024964;28;19929;-66
2021/12/02 04:42:25;;;;;;;;;;;;;;;;;;5029336;28;19929;-66
2021/12/02 04:44:56;;;;;;;;;;;;;;;;;;5010021;28;20367;-66
2021/12/02 04:47:26;;;;;;;;;;;;;;;;;;5028678;28;20367;-67
2021/12/02 04:49:57;;;;;;;;;;;;;;;;;;5011924;28;19925;-66
2021/12/02 04:52:27;;;;;;;;;;;;;;;;;;5028645;28;20382;-66
2021/12/02 04:54:59;;;;;;;;;;;;;;;;;;5027192;28;19937;-66
2021/12/02 04:57:29;;;;;;;;;;;;;;;;;;5024249;28;19932;-66
2021/12/02 04:59:58;;;;;;;;;;;;;;;;;;5027066;28;19925;-66
2021/12/02 05:02:27;;;;;;;;;;;;;;;;;;5025113;28;19925;-65
2021/12/02 05:04:55;;;;;;;;;;;;;;;;;;5029719;28;19925;-65
2021/12/02 05:07:24;;;;;;;;;;;;;;;;;;5029086;28;19955;-65
2021/12/02 05:09:53;;;;;;;;;;;;;;;;;;5023544;28;20287;-65
2021/12/02 05:12:21;;;;;;;;;;;;;;;;;;5027621;28;19933;-65
2021/12/02 05:15:05;;;;;;;;;;;;;;;;;;5028113;28;19972;-65
2021/12/02 05:17:35;;;;;;;;;;;;;;;;;;5024125;28;19925;-66
2021/12/02 05:20:06;;;;;;;;;;;;;;;;;;5024848;28;20047;-65
2021/12/02 05:22:40;;;;;;;;;;;;;;;;;;5026207;28;20617;-66
2021/12/02 05:25:13;;;;;;;;;;;;;;;;;;5026940;28;19929;-66
2021/12/02 05:27:43;;;;;;;;;;;;;;;;;;5023348;28;19941;-65
2021/12/02 05:30:11;;;;;;;;;;;;;;;;;;5028435;28;19933;-65
2021/12/02 05:32:40;;;;;;;;;;;;;;;;;;5024398;28;19925;-65
2021/12/02 05:35:12;;;;;;;;;;;;;;;;;;5028825;28;19933;-65
2021/12/02 05:37:42;;;;;;;;;;;;;;;;;;5024965;28;19926;-65
2021/12/02 05:40:16;;;;;;;;;;;;;;;;;;5028996;28;19959;-65
2021/12/02 05:42:46;;;;;;;;;;;;;;;;;;5025546;28;19926;-65
2021/12/02 05:45:16;;;;;;;;;;;;;;;;;;5024008;28;20532;-65
2021/12/02 05:47:47;;;;;;;;;;;;;;;;;;5024958;28;19929;-66
2021/12/02 05:50:21;;;;;;;;;;;;;;;;;;5034442;28;20593;-66
2021/12/02 05:52:50;;;;;;;;;;;;;;;;;;5017701;28;19940;-66
2021/12/02 05:55:20;;;;;;;;;;;;;;;;;;5029308;28;19925;-66
2021/12/02 05:57:51;;;;;;;;;;;;;;;;;;5021985;28;19932;-66
2021/12/02 06:00:23;;;;;;;;;;;;;;;;;;5028894;28;20425;-66
2021/12/02 06:02:54;;;;;;;;;;;;;;;;;;5020396;28;19933;-66
2021/12/02 06:05:26;;;;;;;;;;;;;;;;;;5026759;28;19936;-66
2021/12/02 06:08:00;;;;;;;;;;;;;;;;;;5024722;28;19933;-66
2021/12/02 06:10:30;;;;;;;;;;;;;;;;;;5021511;28;19925;-65
2021/12/02 06:13:00;;;;;;;;;;;;;;;;;;5020742;28;19926;-66
2021/12/02 06:15:34;;;;;;;;;;;;;;;;;;5020547;28;19933;-65
2021/12/02 06:18:08;;;;;;;;;;;;;;;;;;5027142;28;19929;-66
2021/12/02 06:20:41;;;;;;;;;;;;;;;;;;5020697;28;19925;-65
2021/12/02 06:23:12;;;;;;;;;;;;;;;;;;5023533;28;19925;-65
2021/12/02 06:25:45;;;;;;;;;;;;;;;;;;5022753;28;19929;-65
2021/12/02 06:28:15;;;;;;;;;;;;;;;;;;5026382;28;19925;-65
2021/12/02 06:30:42;;;;;;;;;;;;;;;;;;5025941;28;19937;-65
2021/12/02 06:33:11;;;;;;;;;;;;;;;;;;5025035;28;19925;-65
2021/12/02 06:35:56;;;;;;;;;;;;;;;;;;5024743;28;20024;-65
2021/12/02 06:38:26;;;;;;;;;;;;;;;;;;5027022;28;19933;-65
2021/12/02 06:40:57;;;;;;;;;;;;;;;;;;5024743;28;19925;-65
2021/12/02 06:43:27;;;;;;;;;;;;;;;;;;5025892;28;19925;-65
2021/12/02 06:46:06;;;;;;;;;;;;;;;;;;5027181;28;19925;-65
2021/12/02 06:48:38;;;;;;;;;;;;;;;;;;5025189;28;19960;-65
2021/12/02 06:51:10;;;;;;;;;;;;;;;;;;5019660;28;19959;-65
2021/12/02 06:53:42;;;;;;;;;;;;;;;;;;5022992;28;19933;-65
2021/12/02 06:56:10;;;;;;;;;;;;;;;;;;5024978;28;19933;-65
2021/12/02 06:58:41;;;;;;;;;;;;;;;;;;5026797;28;19925;-64
2021/12/02 07:01:12;;;;;;;;;;;;;;;;;;5026676;28;20220;-64
2021/12/02 07:03:43;;;;;;;;;;;;;;;;;;5023319;28;19929;-65
2021/12/02 07:06:15;;;;;;;;;;;;;;;;;;5025649;28;19926;-65
2021/12/02 07:08:47;;;;;;;;;;;;;;;;;;5021658;28;19933;-65
2021/12/02 07:11:21;;;;;;;;;;;;;;;;;;5034439;28;19925;-67
2021/12/02 07:13:56;;;;;;;;;;;;;;;;;;5022171;28;19925;-67
2021/12/02 07:16:32;;;;;;;;;;;;;;;;;;5033230;28;19925;-66
2021/12/02 07:19:03;;;;;;;;;;;;;;;;;;5023448;28;20252;-66
2021/12/02 07:21:36;;;;;;;;;;;;;;;;;;5030576;28;19925;-65
2021/12/02 07:24:05;;;;;;;;;;;;;;;;;;5026212;28;19932;-65
2021/12/02 07:26:33;;;;;;;;;;;;;;;;;;5040146;28;20016;-67
2021/12/02 07:29:02;;;;;;;;;;;;;;;;;;5027736;28;19936;-67
2021/12/02 07:31:34;;;;;;;;;;;;;;;;;;5026692;28;19929;-67
2021/12/02 07:34:03;;;;;;;;;;;;;;;;;;5024682;28;19925;-67
2021/12/02 07:36:31;;;;;;;;;;;;;;;;;;5022498;28;19926;-66
2021/12/02 07:38:59;;;;;;;;;;;;;;;;;;5030945;28;19978;-68
2021/12/02 07:41:30;;;;;;;;;;;;;;;;;;5030515;28;19955;-66
2021/12/02 07:44:02;;;;;;;;;;;;;;;;;;5024801;28;19929;-68
2021/12/02 07:46:32;;;;;;;;;;;;;;;;;;5034189;28;19936;-69
2021/12/02 07:49:01;;;;;;;;;;;;;;;;;;5031385;28;19933;-69
2021/12/02 07:51:32;;;;;;;;;;;;;;;;;;5026432;28;19924;-68
2021/12/02 07:54:05;;;;;;;;;;;;;;;;;;5027347;28;19937;-68
2021/12/02 07:56:36;;;;;;;;;;;;;;;;;;5028627;28;20274;-68
2021/12/02 07:59:06;;;;;;;;;;;;;;;;;;5027054;28;19982;-68
2021/12/02 08:01:36;;;;;;;;;;;;;;;;;;5028136;28;20393;-67
2021/12/02 08:04:08;;;;;;;;;;;;;;;;;;5025963;28;19932;-69
2021/12/02 08:06:35;;;;;;;;;;;;;;;;;;5035627;28;19979;-68
2021/12/02 08:09:05;;;;;;;;;;;;;;;;;;5024319;28;19925;-68
2021/12/02 08:11:33;;;;;;;;;;;;;;;;;;5026889;28;20401;-66
2021/12/02 08:14:02;;;;;;;;;;;;;;;;;;5029116;28;19936;-67
2021/12/02 08:16:36;;;;;;;;;;;;;;;;;;5028984;28;19964;-69
2021/12/02 08:19:06;;;;;;;;;;;;;;;;;;5026203;28;19925;-69
2021/12/02 08:21:35;;;;;;;;;;;;;;;;;;5022724;28;19936;-69
2021/12/02 08:24:07;;;;;;;;;;;;;;;;;;5027285;28;19925;-69
2021/12/02 08:26:35;;;;;;;;;;;;;;;;;;5029817;28;20304;-67
2021/12/02 08:29:06;;;;;;;;;;;;;;;;;;5025118;28;19925;-67
2021/12/02 08:31:35;;;;;;;;;;;;;;;;;;5024491;28;19936;-67
2021/12/02 08:34:06;;;;;;;;;;;;;;;;;;5026931;28;20283;-70
2021/12/02 08:36:45;;;;;;;;;;;;;;;;;;5029967;28;20417;-71
2021/12/02 08:39:17;;;;;;;;;;;;;;;;;;5025544;28;19940;-70
2021/12/02 08:41:48;;;;;;;;;;;;;;;;;;5022178;28;19936;-71
2021/12/02 08:44:18;;;;;;;;;;;;;;;;;;5025436;28;19937;-71
2021/12/02 08:46:48;;;;;;;;;;;;;;;;;;5027360;28;19933;-71
2021/12/02 08:49:23;;;;;;;;;;;;;;;;;;5026316;28;19925;-70
2021/12/02 08:51:52;;;;;;;;;;;;;;;;;;5026622;28;19925;-71
2021/12/02 08:54:21;;;;;;;;;;;;;;;;;;5025349;28;19940;-71
2021/12/02 08:56:54;;;;;;;;;;;;;;;;;;5023300;28;19936;-68
2021/12/02 08:59:24;;;;;;;;;;;;;;;;;;5024554;28;19925;-68
2021/12/02 09:01:55;;;;;;;;;;;;;;;;;;5024971;28;19926;-68
2021/12/02 09:04:26;;;;;;;;;;;;;;;;;;5024844;28;19940;-68
2021/12/02 09:06:56;;;;;;;;;;;;;;;;;;5025455;28;20332;-71
2021/12/02 09:09:26;;;;;;;;;;;;;;;;;;5021932;28;19935;-70
2021/12/02 09:11:57;;;;;;;;;;;;;;;;;;5024330;28;19957;-71
2021/12/02 09:14:28;;;;;;;;;;;;;;;;;;5020508;28;19929;-69
2021/12/02 09:16:58;;;;;;;;;;;;;;;;;;4707949;28;9129935;-71
2021/12/02 09:19:28;;;;;;;;;;;;;;;;;;5020538;28;19936;-73
2021/12/02 09:21:55;;;;;;;;;;;;;;;;;;5025105;28;19986;-74
2021/12/02 09:24:24;;;;;;;;;;;;;;;;;;5020887;28;20370;-70
2021/12/02 09:26:51;;;;;;;;;;;;;;;;;;5025930;28;19933;-70
2021/12/02 09:29:18;;;;;;;;;;;;;;;;;;5025268;28;19951;-74
2021/12/02 09:31:48;;;;;;;;;;;;;;;;;;5023609;28;20601;-70
2021/12/02 09:34:20;;;;;;;;;;;;;;;;;;5022188;28;20343;-69
2021/12/02 09:36:51;;;;;;;;;;;;;;;;;;5023924;28;19925;-70
2021/12/02 09:39:19;;;;;;;;;;;;;;;;;;5024830;28;19925;-71
2021/12/02 09:41:46;;;;;;;;;;;;;;;;;;5024337;28;20607;-72
2021/12/02 09:44:17;;;;;;;;;;;;;;;;;;5021420;28;19926;-72
2021/12/02 09:46:46;;;;;;;;;;;;;;;;;;5026402;28;19986;-68
2021/12/02 09:49:19;;;;;;;;;;;;;;;;;;5027605;28;19925;-70
2021/12/02 09:52:02;;;;;;;;;;;;;;;;;;5027371;28;20403;-75
2021/12/02 09:54:39;;;;;;;;;;;;;;;;;;5026863;28;19939;-72
2021/12/02 09:57:12;;;;;;;;;;;;;;;;;;5023927;28;20007;-71
2021/12/02 10:02:16;;;;;;;;;;;;;;;;;;5026352;28;19925;-69
2021/12/02 10:05:24;;;;;;;;;;;;;;;;;;5026873;28;20389;-70
2021/12/02 10:07:46;;;;;;;;;;;;;;;;;;5021955;28;19925;-69
2021/12/02 10:10:25;;;;;;;;;;;;;;;;;;5022610;28;19929;-73
2021/12/02 10:12:53;;;;;;;;;;;;;;;;;;5021359;28;19925;-74
2021/12/02 10:15:22;;;;;;;;;;;;;;;;;;5023360;28;19931;-73
2021/12/02 10:17:52;;;;;;;;;;;;;;;;;;5021720;28;19925;-73
2021/12/02 10:20:34;;;;;;;;;;;;;;;;;;5023035;28;19933;-74
2021/12/02 10:23:35;;;;;;;;;;;;;;;;;;5022638;28;19957;-72
2021/12/02 10:26:10;;;;;;;;;;;;;;;;;;5024261;28;19933;-69
2021/12/02 10:28:42;;;;;;;;;;;;;;;;;;5027236;28;19933;-69
2021/12/02 10:31:10;;;;;;;;;;;;;;;;;;5032795;28;20302;-72
2021/12/02 10:33:53;;;;;;;;;;;;;;;;;;5022155;28;19933;-70
2021/12/02 10:36:23;;;;;;;;;;;;;;;;;;5026854;28;19929;-69
2021/12/02 10:38:52;;;;;;;;;;;;;;;;;;5022495;28;20532;-69
2021/12/02 10:41:25;;;;;;;;;;;;;;;;;;5026303;28;19929;-69
2021/12/02 10:43:54;;;;;;;;;;;;;;;;;;5017882;28;19925;-69
2021/12/02 10:46:22;;;;;;;;;;;;;;;;;;5017333;28;19940;-66
2021/12/02 10:48:54;;;;;;;;;;;;;;;;;;5025185;28;19978;-66
2021/12/02 10:51:24;;;;;;;;;;;;;;;;;;5023910;28;19933;-68
2021/12/02 10:53:52;;;;;;;;;;;;;;;;;;5024070;28;19974;-71
2021/12/02 10:56:21;;;;;;;;;;;;;;;;;;5011553;28;19940;-69
2021/12/02 10:58:52;;;;;;;;;;;;;;;;;;5025589;28;20381;-68
2021/12/02 11:01:21;;;;;;;;;;;;;;;;;;5019579;28;19948;-69
2021/12/02 11:03:52;;;;;;;;;;;;;;;;;;5023771;28;19964;-69
2021/12/02 11:06:19;;;;;;;;;;;;;;;;;;5021937;28;20012;-73
2021/12/02 11:08:50;;;;;;;;;;;;;;;;;;5022017;28;20498;-73
2021/12/02 11:11:18;;;;;;;;;;;;;;;;;;5026767;28;19926;-70
2021/12/02 11:13:50;;;;;;;;;;;;;;;;;;5019383;28;19925;-71
2021/12/02 11:16:20;;;;;;;;;;;;;;;;;;5022473;28;19925;-73
2021/12/02 11:18:50;;;;;;;;;;;;;;;;;;5025691;28;19932;-66
2021/12/02 11:21:23;;;;;;;;;;;;;;;;;;5022413;28;19929;-65
2021/12/02 11:23:52;;;;;;;;;;;;;;;;;;5024236;28;19925;-64
2021/12/02 11:26:22;;;;;;;;;;;;;;;;;;5019577;28;19986;-64
2021/12/02 11:28:53;;;;;;;;;;;;;;;;;;5025029;28;20257;-64
2021/12/02 11:31:23;;;;;;;;;;;;;;;;;;5023653;28;19974;-65
2021/12/02 11:33:53;;;;;;;;;;;;;;;;;;5020117;28;19925;-66
2021/12/02 11:36:22;;;;;;;;;;;;;;;;;;5024617;28;20382;-65
2021/12/02 11:38:51;;;;;;;;;;;;;;;;;;5026543;28;19924;-65
2021/12/02 11:41:20;;;;;;;;;;;;;;;;;;5021638;28;19936;-65
2021/12/02 11:43:47;;;;;;;;;;;;;;;;;;5026389;28;20094;-64
2021/12/02 11:46:18;;;;;;;;;;;;;;;;;;5019063;28;19933;-65
2021/12/02 11:48:47;;;;;;;;;;;;;;;;;;5021986;28;19937;-65
2021/12/02 11:51:16;;;;;;;;;;;;;;;;;;5019854;28;19937;-66
2021/12/02 11:53:44;;;;;;;;;;;;;;;;;;5021179;28;19925;-66
2021/12/02 11:56:11;;;;;;;;;;;;;;;;;;5019924;28;19940;-65
2021/12/02 11:58:41;;;;;;;;;;;;;;;;;;5022957;28;19955;-65
2021/12/02 12:01:10;;;;;;;;;;;;;;;;;;5020593;28;19990;-65
2021/12/02 12:03:41;;;;;;;;;;;;;;;;;;5019223;28;20315;-66
2021/12/02 12:06:12;;;;;;;;;;;;;;;;;;5021920;28;19990;-66
2021/12/02 12:08:42;;;;;;;;;;;;;;;;;;5024331;28;19925;-71
2021/12/02 12:11:15;;;;;;;;;;;;;;;;;;5010486;28;19938;-70
2021/12/02 12:13:43;;;;;;;;;;;;;;;;;;5025783;28;19940;-70
2021/12/02 12:16:16;;;;;;;;;;;;;;;;;;5026496;28;19929;-71
2021/12/02 12:18:46;;;;;;;;;;;;;;;;;;5029501;28;20002;-71
2021/12/02 12:21:28;;;;;;;;;;;;;;;;;;5022712;28;19964;-70
2021/12/02 12:23:57;;;;;;;;;;;;;;;;;;5038794;28;19925;-69
2021/12/02 12:26:27;;;;;;;;;;;;;;;;;;5026771;28;19986;-68
2021/12/02 12:28:56;;;;;;;;;;;;;;;;;;5029115;28;19925;-69
2021/12/02 12:31:26;;;;;;;;;;;;;;;;;;5026733;28;20254;-69
2021/12/02 12:33:58;;;;;;;;;;;;;;;;;;5023161;28;19983;-68
2021/12/02 12:36:29;;;;;;;;;;;;;;;;;;5024208;28;19933;-67
2021/12/02 12:38:59;;;;;;;;;;;;;;;;;;5027719;28;20389;-68
2021/12/02 12:41:28;;;;;;;;;;;;;;;;;;5028655;28;19944;-69
2021/12/02 12:43:59;;;;;;;;;;;;;;;;;;5029172;28;19943;-70
2021/12/02 12:46:34;;;;;;;;;;;;;;;;;;5026763;28;19932;-68
2021/12/02 12:49:10;;;;;;;;;;;;;;;;;;5022815;28;19936;-69
2021/12/02 12:51:39;;;;;;;;;;;;;;;;;;5024905;28;19940;-69
2021/12/02 12:54:09;;;;;;;;;;;;;;;;;;5033185;28;19925;-70
2021/12/02 12:56:38;;;;;;;;;;;;;;;;;;5025204;28;19939;-71
2021/12/02 12:59:07;;;;;;;;;;;;;;;;;;5038668;28;19929;-70
2021/12/02 13:01:35;;;;;;;;;;;;;;;;;;5026987;28;19937;-69
2021/12/02 13:04:06;;;;;;;;;;;;;;;;;;5021432;28;19933;-67
2021/12/02 13:06:38;;;;;;;;;;;;;;;;;;5026256;28;20363;-66
2021/12/02 13:09:10;;;;;;;;;;;;;;;;;;5024557;28;19925;-65
2021/12/02 13:11:39;;;;;;;;;;;;;;;;;;5025183;28;19940;-65
2021/12/02 13:14:14;;;;;;;;;;;;;;;;;;5024935;28;19925;-65
2021/12/02 13:16:43;;;;;;;;;;;;;;;;;;5024860;28;19929;-69
2021/12/02 13:19:11;;;;;;;;;;;;;;;;;;5037046;28;19935;-69
2021/12/02 13:21:38;;;;;;;;;;;;;;;;;;5022293;28;19971;-69
2021/12/02 13:24:14;;;;;;;;;;;;;;;;;;5018809;28;20555;-70
2021/12/02 13:26:45;;;;;;;;;;;;;;;;;;5025296;28;19944;-69
2021/12/02 13:29:18;;;;;;;;;;;;;;;;;;5026660;28;19929;-67
2021/12/02 13:31:49;;;;;;;;;;;;;;;;;;5022402;28;19972;-66
2021/12/02 13:34:20;;;;;;;;;;;;;;;;;;5023287;28;19931;-66
2021/12/02 13:36:55;;;;;;;;;;;;;;;;;;5026682;28;19928;-66
2021/12/02 13:39:25;;;;;;;;;;;;;;;;;;5022887;28;19986;-67
2021/12/02 13:41:55;;;;;;;;;;;;;;;;;;5025690;28;19925;-67
2021/12/02 13:44:27;;;;;;;;;;;;;;;;;;5021004;28;19937;-68
2021/12/02 13:46:59;;;;;;;;;;;;;;;;;;5027510;28;19936;-68
2021/12/02 13:49:34;;;;;;;;;;;;;;;;;;5024425;28;19925;-66
2021/12/02 13:54:55;;;;;;;;;;;;;;;;;;5025835;28;19944;-67
2021/12/02 13:57:25;;;;;;;;;;;;;;;;;;5020845;28;20209;-66
2021/12/02 13:59:54;;;;;;;;;;;;;;;;;;5023238;28;20350;-66
2021/12/02 14:02:22;;;;;;;;;;;;;;;;;;5014211;28;19929;-69
2021/12/02 14:04:54;;;;;;;;;;;;;;;;;;5021857;28;20365;-69
2021/12/02 14:07:25;;;;;;;;;;;;;;;;;;5020941;28;19926;-68
2021/12/02 14:09:55;;;;;;;;;;;;;;;;;;5020195;28;21261;-69
2021/12/02 14:12:28;;;;;;;;;;;;;;;;;;5024120;28;19933;-66
2021/12/02 14:14:57;;;;;;;;;;;;;;;;;;5023767;28;19935;-68
2021/12/02 14:17:29;;;;;;;;;;;;;;;;;;5025011;28;20247;-67
2021/12/02 14:19:58;;;;;;;;;;;;;;;;;;5004999;28;19936;-66
2021/12/02 14:22:29;;;;;;;;;;;;;;;;;;5026895;28;20493;-66
2021/12/02 14:24:59;;;;;;;;;;;;;;;;;;5026216;28;19935;-68
2021/12/02 14:27:32;;;;;;;;;;;;;;;;;;5020093;28;20440;-67
2021/12/02 14:30:01;;;;;;;;;;;;;;;;;;5024905;28;19994;-65
2021/12/02 14:32:48;;;;;;;;;;;;;;;;;;5013267;28;20019;-70
2021/12/02 14:35:18;;;;;;;;;;;;;;;;;;5021902;28;19936;-68
2021/12/02 14:37:48;;;;;;;;;;;;;;;;;;5022048;28;19928;-67
2021/12/02 14:40:17;;;;;;;;;;;;;;;;;;5024751;28;20465;-68
2021/12/02 14:42:50;;;;;;;;;;;;;;;;;;5023531;28;19929;-68
2021/12/02 14:45:33;;;;;;;;;;;;;;;;;;5019893;28;20054;-70
2021/12/02 14:48:04;;;;;;;;;;;;;;;;;;5025151;28;20356;-68
2021/12/02 14:50:33;;;;;;;;;;;;;;;;;;5022154;28;19936;-66
2021/12/02 14:53:06;;;;;;;;;;;;;;;;;;5022954;28;19937;-66
2021/12/02 14:55:35;;;;;;;;;;;;;;;;;;5021483;28;19951;-68
2021/12/02 14:58:04;;;;;;;;;;;;;;;;;;5024992;28;19929;-69
2021/12/02 15:00:33;;;;;;;;;;;;;;;;;;5025572;28;19933;-67
2021/12/02 15:03:08;;;;;;;;;;;;;;;;;;5024278;28;19987;-67
2021/12/02 15:05:39;;;;;;;;;;;;;;;;;;5021435;28;20367;-66
2021/12/02 15:08:10;;;;;;;;;;;;;;;;;;5016444;28;19928;-67
2021/12/02 15:10:39;;;;;;;;;;;;;;;;;;5023245;28;19925;-68
2021/12/02 15:13:20;;;;;;;;;;;;;;;;;;5025433;28;20040;-69
2021/12/02 15:15:48;;;;;;;;;;;;;;;;;;5018696;28;19926;-67
2021/12/02 15:18:18;;;;;;;;;;;;;;;;;;5020765;28;20381;-67
2021/12/02 15:20:48;;;;;;;;;;;;;;;;;;5018857;28;20590;-66
2021/12/02 15:23:17;;;;;;;;;;;;;;;;;;5024880;28;19935;-65
2021/12/02 15:25:50;;;;;;;;;;;;;;;;;;5022851;28;19933;-66
2021/12/02 15:28:18;;;;;;;;;;;;;;;;;;5021241;28;19929;-68
2021/12/02 15:30:50;;;;;;;;;;;;;;;;;;5021400;28;19983;-68
2021/12/02 15:33:21;;;;;;;;;;;;;;;;;;5022645;28;19925;-69
2021/12/02 15:35:53;;;;;;;;;;;;;;;;;;5021021;28;20309;-66
2021/12/02 15:38:24;;;;;;;;;;;;;;;;;;5024916;28;20381;-66
2021/12/02 15:40:58;;;;;;;;;;;;;;;;;;5033515;28;19925;-67
2021/12/02 15:43:32;;;;;;;;;;;;;;;;;;5018456;28;19925;-67
2021/12/02 15:46:08;;;;;;;;;;;;;;;;;;5026036;28;19929;-67
2021/12/02 15:48:47;;;;;;;;;;;;;;;;;;5024394;28;19929;-67
2021/12/02 15:51:23;;;;;;;;;;;;;;;;;;5027613;28;19925;-67
2021/12/02 15:53:54;;;;;;;;;;;;;;;;;;5025476;28;19950;-69
2021/12/02 15:56:23;;;;;;;;;;;;;;;;;;5024696;28;20281;-67
2021/12/02 15:58:55;;;;;;;;;;;;;;;;;;5026609;28;19941;-67
2021/12/02 16:01:35;;;;;;;;;;;;;;;;;;5029115;28;19929;-66
2021/12/02 16:04:17;;;;;;;;;;;;;;;;;;5027521;28;19939;-68
2021/12/02 16:12:37;;;;;;;;;;;;;;;;;;5016641;28;19933;-68
2021/12/02 16:15:08;;;;;;;;;;;;;;;;;;5023290;28;19932;-68
2021/12/02 16:17:38;;;;;;;;;;;;;;;;;;5019461;28;19933;-69
2021/12/02 16:20:13;;;;;;;;;;;;;;;;;;5022334;28;19987;-66
2021/12/02 16:22:50;;;;;;;;;;;;;;;;;;5025284;28;19933;-67
2021/12/02 16:25:23;;;;;;;;;;;;;;;;;;5026424;28;19982;-67
2021/12/02 16:27:55;;;;;;;;;;;;;;;;;;5020693;28;19925;-67
2021/12/02 16:30:33;;;;;;;;;;;;;;;;;;5026598;28;19932;-68
2021/12/02 16:33:04;;;;;;;;;;;;;;;;;;5020455;28;19979;-67
2021/12/02 16:35:37;;;;;;;;;;;;;;;;;;5023849;28;20390;-67
2021/12/02 16:38:08;;;;;;;;;;;;;;;;;;5028086;28;19929;-67
2021/12/02 16:40:37;;;;;;;;;;;;;;;;;;5024956;28;19925;-67
2021/12/02 16:43:08;;;;;;;;;;;;;;;;;;5026902;28;19929;-68
2021/12/02 16:45:41;;;;;;;;;;;;;;;;;;5023327;28;19925;-68
2021/12/02 16:48:13;;;;;;;;;;;;;;;;;;5025452;28;19933;-68
2021/12/02 16:50:43;;;;;;;;;;;;;;;;;;5024029;28;19987;-67
2021/12/02 16:53:13;;;;;;;;;;;;;;;;;;5022852;28;19929;-68
2021/12/02 16:55:44;;;;;;;;;;;;;;;;;;5020626;28;20244;-67
2021/12/02 16:58:17;;;;;;;;;;;;;;;;;;5026498;28;19929;-68
2021/12/02 17:00:46;;;;;;;;;;;;;;;;;;5017620;28;19933;-67
2021/12/02 17:03:27;;;;;;;;;;;;;;;;;;5027870;28;19925;-67
2021/12/02 17:06:19;;;;;;;;;;;;;;;;;;5024770;28;19925;-67
2021/12/02 17:08:48;;;;;;;;;;;;;;;;;;5025465;28;20474;-67
2021/12/02 17:11:18;;;;;;;;;;;;;;;;;;5028837;28;19925;-67
2021/12/02 17:13:53;;;;;;;;;;;;;;;;;;5023832;28;19925;-68
2021/12/02 17:16:22;;;;;;;;;;;;;;;;;;5027303;28;19932;-68
2021/12/02 17:18:54;;;;;;;;;;;;;;;;;;5024908;28;19926;-67
2021/12/02 17:21:24;;;;;;;;;;;;;;;;;;5025791;28;19951;-68
2021/12/02 17:23:54;;;;;;;;;;;;;;;;;;5024149;28;19929;-68
2021/12/02 17:26:26;;;;;;;;;;;;;;;;;;5027281;28;19929;-67
2021/12/02 17:28:57;;;;;;;;;;;;;;;;;;5026460;28;19925;-67
2021/12/02 17:31:25;;;;;;;;;;;;;;;;;;5026986;28;19947;-67
2021/12/02 17:34:05;;;;;;;;;;;;;;;;;;5026036;28;19933;-67
2021/12/02 17:36:34;;;;;;;;;;;;;;;;;;5026438;28;20326;-67
2021/12/02 17:39:07;;;;;;;;;;;;;;;;;;5026358;28;19925;-66
2021/12/02 17:41:36;;;;;;;;;;;;;;;;;;5023433;28;19937;-67
2021/12/02 17:44:05;;;;;;;;;;;;;;;;;;5021329;28;20546;-67
2021/12/02 17:46:38;;;;;;;;;;;;;;;;;;5003395;28;19939;-67